createdAt,value
2023-08-07T00:03:40.387Z,96.34
2023-08-07T00:08:40.373Z,96.34
2023-08-07T00:13:40.388Z,96.35
2023-08-07T00:18:40.390Z,96.35
2023-08-07T00:23:40.391Z,96.36
2023-08-07T00:28:40.393Z,96.36
2023-08-07T00:33:40.381Z,96.35
2023-08-07T00:38:40.396Z,96.35
2023-08-07T00:43:40.381Z,96.36
2023-08-07T00:48:40.463Z,96.34
2023-08-07T00:53:40.400Z,96.37
2023-08-07T00:58:40.408Z,96.35
2023-08-07T01:03:40.404Z,96.37
2023-08-07T01:08:40.390Z,96.38
2023-08-07T01:13:40.405Z,96.37
2023-08-07T01:18:40.407Z,96.37
2023-08-07T01:23:40.407Z,96.38
2023-08-07T01:28:40.411Z,96.37
2023-08-07T01:33:40.397Z,96.37
2023-08-07T01:38:40.453Z,96.38
2023-08-07T01:43:40.399Z,96.38
2023-08-07T01:48:40.414Z,96.38
2023-08-07T01:53:40.415Z,96.38
2023-08-07T01:58:40.417Z,96.38
2023-08-07T02:03:40.420Z,96.38
2023-08-07T02:08:40.406Z,96.38
2023-08-07T02:13:40.422Z,96.38
2023-08-07T02:18:40.408Z,96.39
2023-08-07T02:23:40.424Z,96.39
2023-08-07T02:28:40.425Z,96.4
2023-08-07T02:33:40.414Z,96.41
2023-08-07T02:38:40.430Z,96.41
2023-08-07T02:43:40.416Z,96.41
2023-08-07T02:48:40.432Z,96.41
2023-08-07T02:53:40.433Z,96.42
2023-08-07T02:58:40.433Z,96.42
2023-08-07T03:03:40.437Z,96.42
2023-08-07T03:08:40.423Z,96.43
2023-08-07T03:13:40.438Z,96.43
2023-08-07T03:18:40.425Z,96.43
2023-08-07T03:23:40.440Z,96.43
2023-08-07T03:28:40.441Z,96.44
2023-08-07T03:33:40.430Z,96.44
2023-08-07T03:38:40.446Z,96.45
2023-08-07T03:43:40.432Z,96.46
2023-08-07T03:48:40.448Z,96.46
2023-08-07T03:53:40.449Z,96.46
2023-08-07T03:58:40.449Z,96.47
2023-08-07T04:03:40.453Z,96.47
2023-08-07T04:08:40.439Z,96.47
2023-08-07T04:13:40.454Z,96.47
2023-08-07T04:18:40.441Z,96.47
2023-08-07T04:23:40.456Z,96.49
2023-08-07T04:28:40.457Z,96.49
2023-08-07T04:33:40.446Z,96.49
2023-08-07T04:38:40.461Z,96.49
2023-08-07T04:43:40.446Z,96.5
2023-08-07T04:48:40.464Z,96.49
2023-08-07T04:53:40.465Z,96.49
2023-08-07T04:58:40.465Z,96.5
2023-08-07T05:03:40.468Z,96.51
2023-08-07T05:08:40.455Z,96.51
2023-08-07T05:13:40.470Z,96.5
2023-08-07T05:18:40.457Z,96.5
2023-08-07T05:23:40.472Z,96.51
2023-08-07T05:28:40.474Z,96.53
2023-08-07T05:33:40.462Z,96.52
2023-08-07T05:38:40.478Z,96.53
2023-08-07T05:43:40.464Z,96.53
2023-08-07T05:48:40.480Z,96.53
2023-08-07T05:53:40.481Z,96.55
2023-08-07T05:58:40.481Z,96.55
2023-08-07T06:03:40.485Z,96.55
2023-08-07T06:08:40.471Z,96.55
2023-08-07T06:13:40.486Z,96.54
2023-08-07T06:18:40.473Z,96.56
2023-08-07T06:23:40.489Z,96.57
2023-08-07T06:28:40.490Z,96.57
2023-08-07T06:33:40.478Z,96.56
2023-08-07T06:38:40.494Z,96.57
2023-08-07T06:43:40.494Z,96.57
2023-08-07T06:48:40.496Z,96.58
2023-08-07T06:58:40.498Z,96.59
2023-08-07T07:03:40.500Z,96.58
2023-08-07T07:08:40.488Z,96.59
2023-08-07T07:13:40.502Z,96.59
2023-08-07T07:18:40.490Z,96.6
2023-08-07T07:23:40.569Z,96.61
2023-08-07T07:28:40.506Z,96.61
2023-08-07T07:33:40.517Z,96.61
2023-08-07T07:38:40.510Z,96.62
2023-08-07T07:43:40.497Z,96.62
2023-08-07T07:48:40.513Z,96.63
2023-08-07T07:53:40.500Z,96.63
2023-08-07T07:58:40.515Z,96.63
2023-08-07T08:03:40.516Z,96.64
2023-08-07T08:08:40.505Z,96.65
2023-08-07T08:13:40.521Z,96.65
2023-08-07T08:18:40.505Z,96.65
2023-08-07T08:23:40.523Z,96.65
2023-08-07T08:28:40.524Z,96.65
2023-08-07T08:33:40.525Z,96.66
2023-08-07T08:38:40.527Z,96.67
2023-08-07T08:43:40.515Z,96.67
2023-08-07T08:48:40.530Z,96.67
2023-08-07T08:53:40.517Z,96.69
2023-08-07T08:58:40.532Z,96.7
2023-08-07T09:03:40.535Z,96.7
2023-08-07T09:08:40.523Z,96.7
2023-08-07T09:13:40.538Z,96.69
2023-08-07T09:18:40.525Z,96.69
2023-08-07T09:23:40.540Z,96.69
2023-08-07T09:28:40.543Z,96.69
2023-08-07T09:33:40.543Z,96.7
2023-08-07T09:38:40.546Z,96.7
2023-08-07T09:43:40.534Z,96.7
2023-08-07T09:48:40.549Z,96.71
2023-08-07T09:53:40.537Z,96.74
2023-08-07T09:58:40.552Z,96.72
2023-08-07T10:03:40.554Z,96.72
2023-08-07T10:08:40.542Z,96.72
2023-08-07T10:13:40.559Z,96.72
2023-08-07T10:18:40.545Z,96.72
2023-08-07T10:23:40.562Z,96.72
2023-08-07T10:28:40.564Z,96.7
2023-08-07T10:33:40.565Z,96.7
2023-08-07T10:38:40.568Z,96.71
2023-08-07T10:43:40.556Z,96.7
2023-08-07T10:48:40.571Z,96.71
2023-08-07T10:53:40.559Z,96.71
2023-08-07T10:58:40.575Z,96.71
2023-08-07T11:03:40.578Z,96.71
2023-08-07T11:08:40.566Z,96.69
2023-08-07T11:13:40.582Z,96.67
2023-08-07T11:18:40.570Z,96.67
2023-08-07T11:23:40.587Z,96.7
2023-08-07T11:28:40.589Z,96.69
2023-08-07T11:33:40.591Z,96.69
2023-08-07T11:38:40.594Z,96.69
2023-08-07T11:43:40.583Z,96.71
2023-08-07T11:48:40.598Z,96.71
2023-08-07T11:53:40.586Z,96.73
2023-08-07T11:58:40.602Z,96.75
2023-08-07T12:03:40.605Z,96.76
2023-08-07T12:08:40.654Z,96.77
2023-08-07T12:13:40.610Z,96.77
2023-08-07T12:18:40.596Z,96.77
2023-08-07T12:23:40.613Z,96.76
2023-08-07T12:28:40.616Z,96.79
2023-08-07T12:33:40.616Z,96.79
2023-08-07T12:38:40.665Z,96.79
2023-08-07T12:43:40.607Z,96.8
2023-08-07T12:48:40.624Z,96.79
2023-08-07T12:53:40.610Z,96.79
2023-08-07T12:58:40.627Z,96.81
2023-08-07T13:03:40.629Z,96.82
2023-08-07T13:08:40.630Z,96.82
2023-08-07T13:13:40.633Z,96.83
2023-08-07T13:18:40.621Z,96.84
2023-08-07T13:23:40.636Z,96.85
2023-08-07T13:28:40.624Z,96.85
2023-08-07T13:33:40.639Z,96.85
2023-08-07T13:38:40.642Z,96.87
2023-08-07T13:43:40.630Z,96.87
2023-08-07T13:48:40.645Z,96.87
2023-08-07T13:53:40.633Z,96.88
2023-08-07T13:58:40.649Z,96.88
2023-08-07T14:03:40.651Z,96.87
2023-08-07T14:08:40.652Z,96.87
2023-08-07T14:13:40.654Z,96.88
2023-08-07T14:18:40.642Z,96.87
2023-08-07T14:23:40.658Z,96.88
2023-08-07T14:28:40.645Z,96.87
2023-08-07T14:33:40.661Z,96.86
2023-08-07T14:38:40.663Z,96.85
2023-08-07T14:43:40.652Z,96.85
2023-08-07T14:48:40.669Z,96.85
2023-08-07T14:53:40.655Z,96.85
2023-08-07T14:58:40.672Z,96.85
2023-08-07T15:03:40.673Z,96.85
2023-08-07T15:08:40.675Z,96.85
2023-08-07T15:13:40.679Z,96.84
2023-08-07T15:18:40.666Z,96.83
2023-08-07T15:23:40.682Z,96.83
2023-08-07T15:28:40.669Z,96.84
2023-08-07T15:33:40.685Z,96.84
2023-08-07T15:38:40.687Z,96.85
2023-08-07T15:43:40.676Z,96.85
2023-08-07T15:48:40.693Z,96.85
2023-08-07T15:53:40.679Z,96.85
2023-08-07T15:58:40.696Z,96.85
2023-08-07T16:03:40.698Z,96.84
2023-08-07T16:08:40.699Z,96.84
2023-08-07T16:13:40.702Z,96.84
2023-08-07T16:18:40.690Z,96.85
2023-08-07T16:23:40.705Z,96.85
2023-08-07T16:28:40.693Z,96.85
2023-08-07T16:33:40.709Z,96.84
2023-08-07T16:38:40.712Z,96.83
2023-08-07T16:43:49.957Z,96.85
2023-08-07T16:48:40.717Z,96.85
2023-08-07T16:53:40.702Z,96.85
2023-08-07T16:58:40.720Z,96.85
2023-08-07T17:03:40.722Z,96.84
2023-08-07T17:08:40.723Z,96.84
2023-08-07T17:13:40.774Z,96.84
2023-08-07T17:18:40.714Z,96.85
2023-08-07T17:23:40.730Z,96.85
2023-08-07T17:28:40.717Z,96.85
2023-08-07T17:33:40.732Z,96.84
2023-08-07T17:38:40.735Z,96.84
2023-08-07T17:43:40.776Z,96.85
2023-08-07T17:48:40.739Z,96.85
2023-08-07T17:53:40.727Z,96.85
2023-08-07T17:58:40.743Z,96.85
2023-08-07T18:03:40.730Z,96.86
2023-08-07T18:08:40.746Z,96.86
2023-08-07T18:13:40.749Z,96.87
2023-08-07T18:18:40.737Z,96.87
2023-08-07T18:23:40.751Z,96.87
2023-08-07T18:28:40.740Z,96.87
2023-08-07T18:33:40.803Z,96.87
2023-08-07T18:38:40.757Z,96.87
2023-08-07T18:43:40.759Z,96.87
2023-08-07T18:48:40.763Z,96.88
2023-08-07T18:53:40.747Z,96.88
2023-08-07T18:58:40.765Z,96.89
2023-08-07T19:03:40.752Z,96.89
2023-08-07T19:08:40.768Z,96.9
2023-08-07T19:13:40.770Z,96.9
2023-08-07T19:18:40.758Z,96.91
2023-08-07T19:23:40.774Z,96.9
2023-08-07T19:28:40.761Z,96.91
2023-08-07T19:33:40.777Z,96.92
2023-08-07T19:38:40.779Z,96.91
2023-08-07T19:43:40.780Z,96.91
2023-08-07T19:48:40.783Z,96.91
2023-08-07T19:53:40.770Z,96.91
2023-08-07T19:58:40.786Z,96.91
2023-08-07T20:03:40.773Z,96.91
2023-08-07T20:08:40.788Z,96.91
2023-08-07T20:13:40.791Z,96.91
2023-08-07T20:18:40.779Z,96.92
2023-08-07T20:23:40.795Z,96.91
2023-08-07T20:28:40.781Z,96.91
2023-08-07T20:33:40.797Z,96.91
2023-08-07T20:38:40.799Z,96.91
2023-08-07T20:43:40.800Z,96.91
2023-08-07T20:48:40.803Z,96.92
2023-08-07T20:53:40.790Z,96.92
2023-08-07T20:58:40.805Z,96.92
2023-08-07T21:03:40.792Z,96.92
2023-08-07T21:08:40.808Z,96.91
2023-08-07T21:13:40.810Z,96.91
2023-08-07T21:18:40.798Z,96.9
2023-08-07T21:23:40.814Z,96.9
2023-08-07T21:28:40.800Z,96.9
2023-08-07T21:33:40.816Z,96.89
2023-08-07T21:38:40.818Z,96.89
2023-08-07T21:43:40.819Z,96.89
2023-08-07T21:48:40.822Z,96.88
2023-08-07T21:53:40.809Z,96.88
2023-08-07T21:58:40.823Z,96.88
2023-08-07T22:03:40.811Z,96.88
2023-08-07T22:08:40.874Z,96.88
2023-08-07T22:13:40.828Z,96.87
2023-08-07T22:18:45.896Z,96.88
2023-08-07T22:23:40.832Z,96.88
2023-08-07T22:28:40.819Z,96.87
2023-08-07T22:33:40.835Z,96.88
2023-08-07T22:38:40.837Z,96.88
2023-08-07T22:43:40.837Z,96.87
2023-08-07T22:48:40.846Z,96.87
2023-08-07T22:53:40.828Z,96.87
2023-08-07T22:58:40.843Z,96.86
2023-08-07T23:03:40.829Z,96.86
2023-08-07T23:08:40.846Z,96.85
2023-08-07T23:13:40.848Z,96.86
2023-08-07T23:18:43.646Z,96.85
2023-08-07T23:23:40.852Z,96.86
2023-08-07T23:28:40.838Z,96.85
2023-08-07T23:33:40.854Z,96.85
2023-08-07T23:38:40.841Z,96.84
2023-08-07T23:43:40.856Z,96.84
2023-08-07T23:48:40.858Z,96.84
2023-08-07T23:53:40.847Z,96.83
2023-08-07T23:58:40.863Z,96.83
